sensor_id;sensor_type;location;lat;lon;timestamp;temperature;humidity
52513;DHT22;38422;53.172;6.974;2023-05-07T00:02:06;12.70;99.90
52513;DHT22;38422;53.172;6.974;2023-05-07T00:04:33;12.70;99.90
52513;DHT22;38422;53.172;6.974;2023-05-07T00:07:02;12.70;99.90
52513;DHT22;38422;53.172;6.974;2023-05-07T00:09:28;12.70;99.90
52513;DHT22;38422;53.172;6.974;2023-05-07T00:11:54;12.70;99.90
52513;DHT22;38422;53.172;6.974;2023-05-07T00:14:20;12.60;99.90
52513;DHT22;38422;53.172;6.974;2023-05-07T00:16:46;12.60;99.90
52513;DHT22;38422;53.172;6.974;2023-05-07T00:19:12;12.70;99.90
52513;DHT22;38422;53.172;6.974;2023-05-07T00:21:37;12.60;99.90
52513;DHT22;38422;53.172;6.974;2023-05-07T00:24:03;12.60;99.90
52513;DHT22;38422;53.172;6.974;2023-05-07T00:26:29;12.50;99.90
52513;DHT22;38422;53.172;6.974;2023-05-07T00:28:55;12.40;99.90
52513;DHT22;38422;53.172;6.974;2023-05-07T00:31:21;12.40;99.90
52513;DHT22;38422;53.172;6.974;2023-05-07T00:33:46;12.40;99.90
52513;DHT22;38422;53.172;6.974;2023-05-07T00:36:12;12.40;99.90
52513;DHT22;38422;53.172;6.974;2023-05-07T00:38:38;12.50;99.90
52513;DHT22;38422;53.172;6.974;2023-05-07T00:41:03;12.50;99.90
52513;DHT22;38422;53.172;6.974;2023-05-07T00:43:29;12.50;99.90
52513;DHT22;38422;53.172;6.974;2023-05-07T00:45:55;12.50;99.90
52513;DHT22;38422;53.172;6.974;2023-05-07T00:48:21;12.50;99.90
52513;DHT22;38422;53.172;6.974;2023-05-07T00:50:47;12.50;99.90
52513;DHT22;38422;53.172;6.974;2023-05-07T00:53:14;12.40;99.90
52513;DHT22;38422;53.172;6.974;2023-05-07T00:55:39;12.40;99.90
52513;DHT22;38422;53.172;6.974;2023-05-07T00:58:06;12.40;99.90
52513;DHT22;38422;53.172;6.974;2023-05-07T01:00:32;12.50;99.90
52513;DHT22;38422;53.172;6.974;2023-05-07T01:02:58;12.40;99.90
52513;DHT22;38422;53.172;6.974;2023-05-07T01:05:25;12.40;99.90
52513;DHT22;38422;53.172;6.974;2023-05-07T01:07:53;12.40;99.90
52513;DHT22;38422;53.172;6.974;2023-05-07T01:10:20;12.30;99.90
52513;DHT22;38422;53.172;6.974;2023-05-07T01:12:46;12.30;99.90
52513;DHT22;38422;53.172;6.974;2023-05-07T01:15:13;12.30;99.90
52513;DHT22;38422;53.172;6.974;2023-05-07T01:17:40;12.30;99.90
52513;DHT22;38422;53.172;6.974;2023-05-07T01:20:07;12.30;99.90
52513;DHT22;38422;53.172;6.974;2023-05-07T01:24:59;12.20;99.90
52513;DHT22;38422;53.172;6.974;2023-05-07T01:27:27;12.20;99.90
52513;DHT22;38422;53.172;6.974;2023-05-07T01:29:53;12.20;99.90
52513;DHT22;38422;53.172;6.974;2023-05-07T01:32:27;12.20;99.90
52513;DHT22;38422;53.172;6.974;2023-05-07T01:34:55;12.30;99.90
52513;DHT22;38422;53.172;6.974;2023-05-07T01:37:21;12.20;99.90
52513;DHT22;38422;53.172;6.974;2023-05-07T01:39:48;12.20;99.90
52513;DHT22;38422;53.172;6.974;2023-05-07T01:42:14;12.20;99.90
52513;DHT22;38422;53.172;6.974;2023-05-07T01:44:40;12.20;99.90
52513;DHT22;38422;53.172;6.974;2023-05-07T01:47:06;12.20;99.90
52513;DHT22;38422;53.172;6.974;2023-05-07T01:49:31;12.20;99.90
52513;DHT22;38422;53.172;6.974;2023-05-07T01:51:58;12.10;99.90
52513;DHT22;38422;53.172;6.974;2023-05-07T01:54:27;12.10;99.90
52513;DHT22;38422;53.172;6.974;2023-05-07T01:56:54;12.00;99.90
52513;DHT22;38422;53.172;6.974;2023-05-07T01:59:20;12.00;99.90
52513;DHT22;38422;53.172;6.974;2023-05-07T02:01:46;11.90;99.90
52513;DHT22;38422;53.172;6.974;2023-05-07T02:04:13;11.90;99.90
52513;DHT22;38422;53.172;6.974;2023-05-07T02:06:38;11.90;99.90
52513;DHT22;38422;53.172;6.974;2023-05-07T02:09:04;11.90;99.90
52513;DHT22;38422;53.172;6.974;2023-05-07T02:11:30;12.00;99.90
52513;DHT22;38422;53.172;6.974;2023-05-07T02:13:56;12.00;99.90
52513;DHT22;38422;53.172;6.974;2023-05-07T02:16:21;12.00;99.90
52513;DHT22;38422;53.172;6.974;2023-05-07T02:18:48;12.00;99.90
52513;DHT22;38422;53.172;6.974;2023-05-07T02:21:14;12.10;99.90
52513;DHT22;38422;53.172;6.974;2023-05-07T02:23:40;12.00;99.90
52513;DHT22;38422;53.172;6.974;2023-05-07T02:26:05;12.00;99.90
52513;DHT22;38422;53.172;6.974;2023-05-07T02:28:31;11.90;99.90
52513;DHT22;38422;53.172;6.974;2023-05-07T02:30:57;11.90;99.90
52513;DHT22;38422;53.172;6.974;2023-05-07T02:33:25;11.90;99.90
52513;DHT22;38422;53.172;6.974;2023-05-07T02:35:50;11.90;99.90
52513;DHT22;38422;53.172;6.974;2023-05-07T02:38:17;11.90;99.90
52513;DHT22;38422;53.172;6.974;2023-05-07T02:40:43;11.90;99.90
52513;DHT22;38422;53.172;6.974;2023-05-07T02:43:09;11.90;99.90
52513;DHT22;38422;53.172;6.974;2023-05-07T02:45:35;11.90;99.90
52513;DHT22;38422;53.172;6.974;2023-05-07T02:48:03;11.90;99.90
52513;DHT22;38422;53.172;6.974;2023-05-07T02:50:29;11.80;99.90
52513;DHT22;38422;53.172;6.974;2023-05-07T02:52:55;11.80;99.90
52513;DHT22;38422;53.172;6.974;2023-05-07T02:55:21;11.90;99.90
52513;DHT22;38422;53.172;6.974;2023-05-07T02:57:46;11.90;99.90
52513;DHT22;38422;53.172;6.974;2023-05-07T03:00:14;11.90;99.90
52513;DHT22;38422;53.172;6.974;2023-05-07T03:02:40;11.90;99.90
52513;DHT22;38422;53.172;6.974;2023-05-07T03:05:06;11.80;99.90
52513;DHT22;38422;53.172;6.974;2023-05-07T03:07:32;11.80;99.90
52513;DHT22;38422;53.172;6.974;2023-05-07T03:09:57;11.80;99.90
52513;DHT22;38422;53.172;6.974;2023-05-07T03:12:23;11.80;99.90
52513;DHT22;38422;53.172;6.974;2023-05-07T03:14:49;11.80;99.90
52513;DHT22;38422;53.172;6.974;2023-05-07T03:17:15;11.70;99.90
52513;DHT22;38422;53.172;6.974;2023-05-07T03:19:41;11.60;99.90
52513;DHT22;38422;53.172;6.974;2023-05-07T03:22:07;11.60;99.90
52513;DHT22;38422;53.172;6.974;2023-05-07T03:24:33;11.60;99.90
52513;DHT22;38422;53.172;6.974;2023-05-07T03:26:58;11.50;99.90
52513;DHT22;38422;53.172;6.974;2023-05-07T03:29:24;11.50;99.90
52513;DHT22;38422;53.172;6.974;2023-05-07T03:31:50;11.50;99.90
52513;DHT22;38422;53.172;6.974;2023-05-07T03:34:16;11.50;99.90
52513;DHT22;38422;53.172;6.974;2023-05-07T03:36:42;11.60;99.90
52513;DHT22;38422;53.172;6.974;2023-05-07T03:39:08;11.50;99.90
52513;DHT22;38422;53.172;6.974;2023-05-07T03:41:34;11.50;99.90
52513;DHT22;38422;53.172;6.974;2023-05-07T03:43:59;11.50;99.90
52513;DHT22;38422;53.172;6.974;2023-05-07T03:46:25;11.50;99.90
52513;DHT22;38422;53.172;6.974;2023-05-07T03:48:51;11.50;99.90
52513;DHT22;38422;53.172;6.974;2023-05-07T03:51:18;11.40;99.90
52513;DHT22;38422;53.172;6.974;2023-05-07T03:53:43;11.50;99.90
52513;DHT22;38422;53.172;6.974;2023-05-07T03:56:09;11.40;99.90
52513;DHT22;38422;53.172;6.974;2023-05-07T03:58:35;11.40;99.90
52513;DHT22;38422;53.172;6.974;2023-05-07T04:01:00;11.40;99.90
52513;DHT22;38422;53.172;6.974;2023-05-07T04:03:26;11.30;99.90
52513;DHT22;38422;53.172;6.974;2023-05-07T04:05:52;11.30;99.90
52513;DHT22;38422;53.172;6.974;2023-05-07T04:08:17;11.30;99.90
52513;DHT22;38422;53.172;6.974;2023-05-07T04:10:43;11.20;99.90
52513;DHT22;38422;53.172;6.974;2023-05-07T04:13:09;11.20;99.90
52513;DHT22;38422;53.172;6.974;2023-05-07T04:15:35;11.20;99.90
52513;DHT22;38422;53.172;6.974;2023-05-07T04:18:01;11.30;99.90
52513;DHT22;38422;53.172;6.974;2023-05-07T04:20:27;11.30;99.90
52513;DHT22;38422;53.172;6.974;2023-05-07T04:22:53;11.30;99.90
52513;DHT22;38422;53.172;6.974;2023-05-07T04:25:18;11.30;99.90
52513;DHT22;38422;53.172;6.974;2023-05-07T04:27:44;11.30;99.90
52513;DHT22;38422;53.172;6.974;2023-05-07T04:30:10;11.30;99.90
52513;DHT22;38422;53.172;6.974;2023-05-07T04:32:36;11.30;99.90
52513;DHT22;38422;53.172;6.974;2023-05-07T04:35:03;11.30;99.90
52513;DHT22;38422;53.172;6.974;2023-05-07T04:37:28;11.20;99.90
52513;DHT22;38422;53.172;6.974;2023-05-07T04:39:54;11.20;99.90
52513;DHT22;38422;53.172;6.974;2023-05-07T04:42:20;11.20;99.90
52513;DHT22;38422;53.172;6.974;2023-05-07T04:44:45;11.20;99.90
52513;DHT22;38422;53.172;6.974;2023-05-07T04:47:12;11.20;99.90
52513;DHT22;38422;53.172;6.974;2023-05-07T04:49:40;11.20;99.90
52513;DHT22;38422;53.172;6.974;2023-05-07T04:52:06;11.30;99.90
52513;DHT22;38422;53.172;6.974;2023-05-07T04:54:32;11.30;99.90
52513;DHT22;38422;53.172;6.974;2023-05-07T04:56:57;11.30;99.90
52513;DHT22;38422;53.172;6.974;2023-05-07T04:59:23;11.30;99.90
52513;DHT22;38422;53.172;6.974;2023-05-07T05:01:49;11.20;99.90
52513;DHT22;38422;53.172;6.974;2023-05-07T05:04:14;11.10;99.90
52513;DHT22;38422;53.172;6.974;2023-05-07T05:06:40;11.10;99.90
52513;DHT22;38422;53.172;6.974;2023-05-07T05:09:07;11.10;99.90
52513;DHT22;38422;53.172;6.974;2023-05-07T05:11:32;11.10;99.90
52513;DHT22;38422;53.172;6.974;2023-05-07T05:13:59;11.10;99.90
52513;DHT22;38422;53.172;6.974;2023-05-07T05:16:26;11.10;99.90
52513;DHT22;38422;53.172;6.974;2023-05-07T05:18:51;11.10;99.90
52513;DHT22;38422;53.172;6.974;2023-05-07T05:21:17;11.10;99.90
52513;DHT22;38422;53.172;6.974;2023-05-07T05:23:43;11.10;99.90
52513;DHT22;38422;53.172;6.974;2023-05-07T05:26:09;11.00;99.90
52513;DHT22;38422;53.172;6.974;2023-05-07T05:28:34;10.90;99.90
52513;DHT22;38422;53.172;6.974;2023-05-07T05:31:00;10.90;99.90
52513;DHT22;38422;53.172;6.974;2023-05-07T05:33:26;10.90;99.90
52513;DHT22;38422;53.172;6.974;2023-05-07T05:35:53;10.90;99.90
52513;DHT22;38422;53.172;6.974;2023-05-07T05:38:18;11.00;99.90
52513;DHT22;38422;53.172;6.974;2023-05-07T05:40:44;11.00;99.90
52513;DHT22;38422;53.172;6.974;2023-05-07T05:43:10;11.00;99.90
52513;DHT22;38422;53.172;6.974;2023-05-07T05:45:35;11.00;99.90
52513;DHT22;38422;53.172;6.974;2023-05-07T05:48:01;11.00;99.90
52513;DHT22;38422;53.172;6.974;2023-05-07T05:50:27;11.10;99.90
52513;DHT22;38422;53.172;6.974;2023-05-07T05:52:53;11.00;99.90
52513;DHT22;38422;53.172;6.974;2023-05-07T05:55:18;11.10;99.90
52513;DHT22;38422;53.172;6.974;2023-05-07T05:57:45;11.10;99.90
52513;DHT22;38422;53.172;6.974;2023-05-07T06:00:11;11.20;99.90
52513;DHT22;38422;53.172;6.974;2023-05-07T06:02:37;11.20;99.90
52513;DHT22;38422;53.172;6.974;2023-05-07T06:05:03;11.20;99.90
52513;DHT22;38422;53.172;6.974;2023-05-07T06:07:29;11.20;99.90
52513;DHT22;38422;53.172;6.974;2023-05-07T06:09:55;11.20;99.90
52513;DHT22;38422;53.172;6.974;2023-05-07T06:12:21;11.20;99.90
52513;DHT22;38422;53.172;6.974;2023-05-07T06:14:46;11.20;99.90
52513;DHT22;38422;53.172;6.974;2023-05-07T06:17:12;11.20;99.90
52513;DHT22;38422;53.172;6.974;2023-05-07T06:19:38;11.30;99.90
52513;DHT22;38422;53.172;6.974;2023-05-07T06:22:04;11.30;99.90
52513;DHT22;38422;53.172;6.974;2023-05-07T06:24:29;11.30;99.90
52513;DHT22;38422;53.172;6.974;2023-05-07T06:26:55;11.30;99.90
52513;DHT22;38422;53.172;6.974;2023-05-07T06:29:21;11.30;99.90
52513;DHT22;38422;53.172;6.974;2023-05-07T06:31:46;11.30;99.90
52513;DHT22;38422;53.172;6.974;2023-05-07T06:34:12;11.40;99.90
52513;DHT22;38422;53.172;6.974;2023-05-07T06:36:41;11.40;99.90
52513;DHT22;38422;53.172;6.974;2023-05-07T06:39:06;11.40;99.90
52513;DHT22;38422;53.172;6.974;2023-05-07T06:41:32;11.40;99.90
52513;DHT22;38422;53.172;6.974;2023-05-07T06:43:58;11.40;99.90
52513;DHT22;38422;53.172;6.974;2023-05-07T06:46:23;11.40;99.90
52513;DHT22;38422;53.172;6.974;2023-05-07T06:48:49;11.40;99.90
52513;DHT22;38422;53.172;6.974;2023-05-07T06:51:15;11.40;99.90
52513;DHT22;38422;53.172;6.974;2023-05-07T06:53:40;11.50;99.90
52513;DHT22;38422;53.172;6.974;2023-05-07T06:56:06;11.50;99.90
52513;DHT22;38422;53.172;6.974;2023-05-07T06:58:32;11.50;99.90
52513;DHT22;38422;53.172;6.974;2023-05-07T07:00:58;11.50;99.90
52513;DHT22;38422;53.172;6.974;2023-05-07T07:03:24;11.50;99.90
52513;DHT22;38422;53.172;6.974;2023-05-07T07:05:54;11.50;99.90
52513;DHT22;38422;53.172;6.974;2023-05-07T07:08:19;11.50;99.90
52513;DHT22;38422;53.172;6.974;2023-05-07T07:10:47;11.60;99.90
52513;DHT22;38422;53.172;6.974;2023-05-07T07:13:13;11.70;99.90
52513;DHT22;38422;53.172;6.974;2023-05-07T07:15:39;11.70;99.90
52513;DHT22;38422;53.172;6.974;2023-05-07T07:18:05;11.80;99.90
52513;DHT22;38422;53.172;6.974;2023-05-07T07:20:32;11.90;99.90
52513;DHT22;38422;53.172;6.974;2023-05-07T07:22:57;11.90;99.90
52513;DHT22;38422;53.172;6.974;2023-05-07T07:25:23;12.00;99.90
52513;DHT22;38422;53.172;6.974;2023-05-07T07:27:49;12.00;99.90
52513;DHT22;38422;53.172;6.974;2023-05-07T07:30:15;12.10;99.90
52513;DHT22;38422;53.172;6.974;2023-05-07T07:32:41;12.10;99.90
52513;DHT22;38422;53.172;6.974;2023-05-07T07:35:07;12.10;99.90
52513;DHT22;38422;53.172;6.974;2023-05-07T07:37:33;12.10;99.90
52513;DHT22;38422;53.172;6.974;2023-05-07T07:39:59;12.10;99.90
52513;DHT22;38422;53.172;6.974;2023-05-07T07:42:25;12.10;99.90
52513;DHT22;38422;53.172;6.974;2023-05-07T07:44:50;12.10;99.90
52513;DHT22;38422;53.172;6.974;2023-05-07T07:47:16;12.10;99.90
52513;DHT22;38422;53.172;6.974;2023-05-07T07:49:42;12.10;99.90
52513;DHT22;38422;53.172;6.974;2023-05-07T07:52:07;12.20;99.90
52513;DHT22;38422;53.172;6.974;2023-05-07T07:54:33;12.30;99.90
52513;DHT22;38422;53.172;6.974;2023-05-07T07:56:59;12.40;99.90
52513;DHT22;38422;53.172;6.974;2023-05-07T07:59:25;12.50;99.90
52513;DHT22;38422;53.172;6.974;2023-05-07T08:01:50;12.40;99.90
52513;DHT22;38422;53.172;6.974;2023-05-07T08:04:17;12.50;99.90
52513;DHT22;38422;53.172;6.974;2023-05-07T08:06:43;12.50;99.90
52513;DHT22;38422;53.172;6.974;2023-05-07T08:09:09;12.60;99.90
52513;DHT22;38422;53.172;6.974;2023-05-07T08:11:35;12.60;99.90
52513;DHT22;38422;53.172;6.974;2023-05-07T08:14:03;12.70;99.90
52513;DHT22;38422;53.172;6.974;2023-05-07T08:16:29;12.70;99.90
52513;DHT22;38422;53.172;6.974;2023-05-07T08:18:55;12.80;99.90
52513;DHT22;38422;53.172;6.974;2023-05-07T08:21:20;12.80;99.90
52513;DHT22;38422;53.172;6.974;2023-05-07T08:23:46;13.00;99.90
52513;DHT22;38422;53.172;6.974;2023-05-07T08:26:12;13.00;99.90
52513;DHT22;38422;53.172;6.974;2023-05-07T08:28:37;13.10;99.90
52513;DHT22;38422;53.172;6.974;2023-05-07T08:31:03;13.10;99.90
52513;DHT22;38422;53.172;6.974;2023-05-07T08:33:29;13.10;99.90
52513;DHT22;38422;53.172;6.974;2023-05-07T08:35:55;13.10;99.90
52513;DHT22;38422;53.172;6.974;2023-05-07T08:38:21;13.00;99.90
52513;DHT22;38422;53.172;6.974;2023-05-07T08:40:46;13.00;99.90
52513;DHT22;38422;53.172;6.974;2023-05-07T08:43:13;13.00;99.90
52513;DHT22;38422;53.172;6.974;2023-05-07T08:45:40;13.10;99.90
52513;DHT22;38422;53.172;6.974;2023-05-07T08:48:09;13.10;99.90
52513;DHT22;38422;53.172;6.974;2023-05-07T08:50:39;13.20;99.90
52513;DHT22;38422;53.172;6.974;2023-05-07T08:53:05;13.20;99.90
52513;DHT22;38422;53.172;6.974;2023-05-07T08:55:31;13.40;99.90
52513;DHT22;38422;53.172;6.974;2023-05-07T08:57:58;13.40;99.90
52513;DHT22;38422;53.172;6.974;2023-05-07T09:00:24;13.40;99.90
52513;DHT22;38422;53.172;6.974;2023-05-07T09:02:52;13.60;99.90
52513;DHT22;38422;53.172;6.974;2023-05-07T09:05:18;13.70;99.90
52513;DHT22;38422;53.172;6.974;2023-05-07T09:07:44;13.80;99.90
52513;DHT22;38422;53.172;6.974;2023-05-07T09:10:11;13.90;99.90
52513;DHT22;38422;53.172;6.974;2023-05-07T09:12:37;14.00;99.90
52513;DHT22;38422;53.172;6.974;2023-05-07T09:15:05;14.10;99.90
52513;DHT22;38422;53.172;6.974;2023-05-07T09:17:31;14.20;99.90
52513;DHT22;38422;53.172;6.974;2023-05-07T09:20:10;14.30;99.90
52513;DHT22;38422;53.172;6.974;2023-05-07T09:22:36;14.30;99.90
52513;DHT22;38422;53.172;6.974;2023-05-07T09:25:02;14.30;99.90
52513;DHT22;38422;53.172;6.974;2023-05-07T09:27:28;14.40;99.90
52513;DHT22;38422;53.172;6.974;2023-05-07T09:29:55;14.30;99.90
52513;DHT22;38422;53.172;6.974;2023-05-07T09:32:21;14.40;99.90
52513;DHT22;38422;53.172;6.974;2023-05-07T09:34:47;14.40;99.90
52513;DHT22;38422;53.172;6.974;2023-05-07T09:37:13;14.40;99.90
52513;DHT22;38422;53.172;6.974;2023-05-07T09:39:41;14.40;99.90
52513;DHT22;38422;53.172;6.974;2023-05-07T09:42:08;14.50;99.90
52513;DHT22;38422;53.172;6.974;2023-05-07T09:44:34;14.60;99.90
52513;DHT22;38422;53.172;6.974;2023-05-07T09:47:07;14.80;99.90
52513;DHT22;38422;53.172;6.974;2023-05-07T09:49:37;14.80;99.90
52513;DHT22;38422;53.172;6.974;2023-05-07T09:52:07;15.00;99.90
52513;DHT22;38422;53.172;6.974;2023-05-07T09:54:35;15.10;99.90
52513;DHT22;38422;53.172;6.974;2023-05-07T09:57:04;15.40;99.90
52513;DHT22;38422;53.172;6.974;2023-05-07T09:59:31;15.60;99.90
52513;DHT22;38422;53.172;6.974;2023-05-07T10:01:59;15.60;99.90
52513;DHT22;38422;53.172;6.974;2023-05-07T10:04:25;15.70;99.90
52513;DHT22;38422;53.172;6.974;2023-05-07T10:06:52;15.90;99.90
52513;DHT22;38422;53.172;6.974;2023-05-07T10:09:19;16.10;99.90
52513;DHT22;38422;53.172;6.974;2023-05-07T10:11:46;16.10;99.90
52513;DHT22;38422;53.172;6.974;2023-05-07T10:14:14;16.20;99.90
52513;DHT22;38422;53.172;6.974;2023-05-07T10:16:41;16.00;99.90
52513;DHT22;38422;53.172;6.974;2023-05-07T10:19:08;16.20;99.90
52513;DHT22;38422;53.172;6.974;2023-05-07T10:21:42;16.50;99.90
52513;DHT22;38422;53.172;6.974;2023-05-07T10:24:15;16.60;99.90
52513;DHT22;38422;53.172;6.974;2023-05-07T10:26:44;16.60;99.90
52513;DHT22;38422;53.172;6.974;2023-05-07T10:32:16;16.40;99.90
52513;DHT22;38422;53.172;6.974;2023-05-07T10:34:47;16.50;99.90
52513;DHT22;38422;53.172;6.974;2023-05-07T10:37:14;16.60;99.90
52513;DHT22;38422;53.172;6.974;2023-05-07T10:39:40;16.60;99.90
52513;DHT22;38422;53.172;6.974;2023-05-07T10:42:16;16.70;99.90
52513;DHT22;38422;53.172;6.974;2023-05-07T10:44:42;16.70;99.90
52513;DHT22;38422;53.172;6.974;2023-05-07T10:47:10;16.80;99.90
52513;DHT22;38422;53.172;6.974;2023-05-07T10:54:40;16.70;99.90
52513;DHT22;38422;53.172;6.974;2023-05-07T10:59:56;16.90;99.90
52513;DHT22;38422;53.172;6.974;2023-05-07T11:02:22;17.10;99.90
52513;DHT22;38422;53.172;6.974;2023-05-07T11:05:20;17.20;99.90
52513;DHT22;38422;53.172;6.974;2023-05-07T11:07:57;17.00;99.90
52513;DHT22;38422;53.172;6.974;2023-05-07T11:10:46;17.20;99.90
52513;DHT22;38422;53.172;6.974;2023-05-07T11:13:09;17.20;99.90
52513;DHT22;38422;53.172;6.974;2023-05-07T11:15:37;17.40;99.90
52513;DHT22;38422;53.172;6.974;2023-05-07T11:18:04;17.40;99.90
52513;DHT22;38422;53.172;6.974;2023-05-07T11:20:59;17.60;99.90
52513;DHT22;38422;53.172;6.974;2023-05-07T11:26:08;17.60;99.90
52513;DHT22;38422;53.172;6.974;2023-05-07T11:28:41;17.70;99.90
52513;DHT22;38422;53.172;6.974;2023-05-07T11:31:07;17.70;99.90
52513;DHT22;38422;53.172;6.974;2023-05-07T11:34:00;17.80;99.90
52513;DHT22;38422;53.172;6.974;2023-05-07T11:40:08;17.80;99.90
52513;DHT22;38422;53.172;6.974;2023-05-07T11:42:39;17.60;99.90
52513;DHT22;38422;53.172;6.974;2023-05-07T11:45:07;17.70;99.90
52513;DHT22;38422;53.172;6.974;2023-05-07T11:47:33;17.80;99.90
52513;DHT22;38422;53.172;6.974;2023-05-07T11:50:07;17.90;99.90
52513;DHT22;38422;53.172;6.974;2023-05-07T11:52:33;18.10;99.90
52513;DHT22;38422;53.172;6.974;2023-05-07T11:55:00;18.40;99.90
52513;DHT22;38422;53.172;6.974;2023-05-07T11:57:27;18.70;99.90
52513;DHT22;38422;53.172;6.974;2023-05-07T11:59:59;18.90;99.90
52513;DHT22;38422;53.172;6.974;2023-05-07T12:02:28;19.10;99.90
52513;DHT22;38422;53.172;6.974;2023-05-07T12:04:54;19.30;99.90
52513;DHT22;38422;53.172;6.974;2023-05-07T12:07:20;19.50;99.90
52513;DHT22;38422;53.172;6.974;2023-05-07T12:09:47;19.50;99.90
52513;DHT22;38422;53.172;6.974;2023-05-07T12:16:17;20.00;99.90
52513;DHT22;38422;53.172;6.974;2023-05-07T12:25:09;20.80;99.90
52513;DHT22;38422;53.172;6.974;2023-05-07T12:27:37;21.10;99.90
52513;DHT22;38422;53.172;6.974;2023-05-07T12:30:03;21.20;99.90
52513;DHT22;38422;53.172;6.974;2023-05-07T12:32:29;21.20;99.90
52513;DHT22;38422;53.172;6.974;2023-05-07T12:34:55;21.10;99.90
52513;DHT22;38422;53.172;6.974;2023-05-07T12:37:26;21.00;99.90
52513;DHT22;38422;53.172;6.974;2023-05-07T12:40:10;21.00;99.90
52513;DHT22;38422;53.172;6.974;2023-05-07T12:42:37;21.20;99.90
52513;DHT22;38422;53.172;6.974;2023-05-07T12:47:35;21.80;99.90
52513;DHT22;38422;53.172;6.974;2023-05-07T12:50:02;22.00;99.90
52513;DHT22;38422;53.172;6.974;2023-05-07T12:52:28;22.30;99.90
52513;DHT22;38422;53.172;6.974;2023-05-07T12:54:54;22.40;99.90
52513;DHT22;38422;53.172;6.974;2023-05-07T12:57:19;22.50;99.90
52513;DHT22;38422;53.172;6.974;2023-05-07T12:59:46;22.70;99.90
52513;DHT22;38422;53.172;6.974;2023-05-07T13:02:12;22.90;99.90
52513;DHT22;38422;53.172;6.974;2023-05-07T13:04:38;22.90;99.90
52513;DHT22;38422;53.172;6.974;2023-05-07T13:07:03;22.90;99.90
52513;DHT22;38422;53.172;6.974;2023-05-07T13:09:30;22.90;99.90
52513;DHT22;38422;53.172;6.974;2023-05-07T13:11:57;23.10;99.90
52513;DHT22;38422;53.172;6.974;2023-05-07T13:14:25;23.00;99.90
52513;DHT22;38422;53.172;6.974;2023-05-07T13:16:51;23.10;99.90
52513;DHT22;38422;53.172;6.974;2023-05-07T13:19:16;23.30;99.90
52513;DHT22;38422;53.172;6.974;2023-05-07T13:21:42;23.50;99.90
52513;DHT22;38422;53.172;6.974;2023-05-07T13:24:08;23.80;99.90
52513;DHT22;38422;53.172;6.974;2023-05-07T13:26:34;23.90;99.90
52513;DHT22;38422;53.172;6.974;2023-05-07T13:29:00;23.60;99.90
52513;DHT22;38422;53.172;6.974;2023-05-07T13:31:26;23.60;99.90
52513;DHT22;38422;53.172;6.974;2023-05-07T13:33:52;23.40;99.90
52513;DHT22;38422;53.172;6.974;2023-05-07T13:36:18;23.40;99.90
52513;DHT22;38422;53.172;6.974;2023-05-07T13:38:43;23.40;99.80
52513;DHT22;38422;53.172;6.974;2023-05-07T13:41:09;23.60;99.90
52513;DHT22;38422;53.172;6.974;2023-05-07T13:43:35;23.40;99.40
52513;DHT22;38422;53.172;6.974;2023-05-07T13:46:00;23.60;99.70
52513;DHT22;38422;53.172;6.974;2023-05-07T13:48:26;23.70;99.50
52513;DHT22;38422;53.172;6.974;2023-05-07T13:50:53;23.50;98.90
52513;DHT22;38422;53.172;6.974;2023-05-07T13:53:19;23.70;99.20
52513;DHT22;38422;53.172;6.974;2023-05-07T13:55:45;23.70;99.10
52513;DHT22;38422;53.172;6.974;2023-05-07T13:58:11;23.80;98.90
52513;DHT22;38422;53.172;6.974;2023-05-07T14:00:37;23.80;99.10
52513;DHT22;38422;53.172;6.974;2023-05-07T14:03:04;23.90;99.10
52513;DHT22;38422;53.172;6.974;2023-05-07T14:05:30;24.00;98.70
52513;DHT22;38422;53.172;6.974;2023-05-07T14:07:57;24.30;98.30
52513;DHT22;38422;53.172;6.974;2023-05-07T14:10:23;24.40;97.90
52513;DHT22;38422;53.172;6.974;2023-05-07T14:12:49;24.20;97.70
52513;DHT22;38422;53.172;6.974;2023-05-07T14:15:15;24.30;97.50
52513;DHT22;38422;53.172;6.974;2023-05-07T14:17:44;24.40;97.40
52513;DHT22;38422;53.172;6.974;2023-05-07T14:20:12;24.50;97.30
52513;DHT22;38422;53.172;6.974;2023-05-07T14:22:38;24.60;97.10
52513;DHT22;38422;53.172;6.974;2023-05-07T14:25:04;24.60;96.80
52513;DHT22;38422;53.172;6.974;2023-05-07T14:27:30;24.30;96.40
52513;DHT22;38422;53.172;6.974;2023-05-07T14:29:56;24.10;96.70
52513;DHT22;38422;53.172;6.974;2023-05-07T14:32:22;24.10;97.30
52513;DHT22;38422;53.172;6.974;2023-05-07T14:34:47;24.30;97.40
52513;DHT22;38422;53.172;6.974;2023-05-07T14:37:13;24.50;97.00
52513;DHT22;38422;53.172;6.974;2023-05-07T14:39:39;24.50;96.70
52513;DHT22;38422;53.172;6.974;2023-05-07T14:42:05;24.40;96.10
52513;DHT22;38422;53.172;6.974;2023-05-07T14:44:36;24.70;96.30
52513;DHT22;38422;53.172;6.974;2023-05-07T14:47:01;24.80;96.10
52513;DHT22;38422;53.172;6.974;2023-05-07T14:49:27;25.00;96.00
52513;DHT22;38422;53.172;6.974;2023-05-07T14:51:53;25.10;95.90
52513;DHT22;38422;53.172;6.974;2023-05-07T14:54:19;25.20;96.10
52513;DHT22;38422;53.172;6.974;2023-05-07T14:56:45;25.10;95.70
52513;DHT22;38422;53.172;6.974;2023-05-07T14:59:10;25.10;95.80
52513;DHT22;38422;53.172;6.974;2023-05-07T15:01:36;24.90;95.50
52513;DHT22;38422;53.172;6.974;2023-05-07T15:04:03;25.20;95.80
52513;DHT22;38422;53.172;6.974;2023-05-07T15:06:30;25.30;95.10
52513;DHT22;38422;53.172;6.974;2023-05-07T15:08:56;25.40;94.70
52513;DHT22;38422;53.172;6.974;2023-05-07T15:11:22;25.30;94.50
52513;DHT22;38422;53.172;6.974;2023-05-07T15:13:48;25.40;94.90
52513;DHT22;38422;53.172;6.974;2023-05-07T15:16:14;25.40;94.50
52513;DHT22;38422;53.172;6.974;2023-05-07T15:18:40;25.10;94.50
52513;DHT22;38422;53.172;6.974;2023-05-07T15:21:06;25.40;94.80
52513;DHT22;38422;53.172;6.974;2023-05-07T15:23:31;25.30;94.70
52513;DHT22;38422;53.172;6.974;2023-05-07T15:25:57;25.20;94.40
52513;DHT22;38422;53.172;6.974;2023-05-07T15:28:23;24.90;94.30
52513;DHT22;38422;53.172;6.974;2023-05-07T15:30:50;24.60;94.30
52513;DHT22;38422;53.172;6.974;2023-05-07T15:33:16;24.20;94.60
52513;DHT22;38422;53.172;6.974;2023-05-07T15:35:42;24.00;95.00
52513;DHT22;38422;53.172;6.974;2023-05-07T15:38:07;23.80;95.40
52513;DHT22;38422;53.172;6.974;2023-05-07T15:40:34;23.70;95.70
52513;DHT22;38422;53.172;6.974;2023-05-07T15:43:01;23.70;95.80
52513;DHT22;38422;53.172;6.974;2023-05-07T15:45:28;23.50;95.80
52513;DHT22;38422;53.172;6.974;2023-05-07T15:47:56;23.30;96.10
52513;DHT22;38422;53.172;6.974;2023-05-07T15:50:21;23.20;96.20
52513;DHT22;38422;53.172;6.974;2023-05-07T15:52:47;23.00;96.30
52513;DHT22;38422;53.172;6.974;2023-05-07T15:55:13;22.80;96.50
52513;DHT22;38422;53.172;6.974;2023-05-07T15:57:39;22.60;96.80
52513;DHT22;38422;53.172;6.974;2023-05-07T16:00:06;22.30;97.00